Terminal Aerodrome Forecast
Issued by NWS

Home | Current Version | Previous Version | Text Only | Print | Product List | Glossary On
Versions: 1 2 3 4 5 6 7 8 9 10 11 12 13 14 15 16 17 18
000
FTUS42 KMLB 190500
TAFTIX
TAF
KTIX 190540Z 1906/2006 18005KT P6SM VCSH SCT015 BKN025 OVC060
      TEMPO 1907/1909 5SM -SHRA BR BKN018 BKN030
     FM191000 18008KT P6SM VCSH BKN003 OVC020
     FM191500 22010KT P6SM VCSH SCT008 OVC035
     FM200000 25010KT P6SM SCT012 BKN020
      AMD NOT SKED TIL 191100=

USA.gov is the U.S. government's official web portal to all federal, state and local government web resources and services.